createdAt,value
2023-04-18T00:00:38.549Z,71.98
2023-04-18T00:01:38.569Z,71.93
2023-04-18T00:02:38.809Z,72.24
2023-04-18T00:03:38.816Z,71.72
2023-04-18T00:04:38.699Z,72.46
2023-04-18T00:05:38.546Z,70.84
2023-04-18T00:06:38.540Z,71.34
2023-04-18T00:07:38.535Z,72.39
2023-04-18T00:08:38.528Z,71.46
2023-04-18T00:09:38.655Z,72.01
2023-04-18T00:10:38.558Z,72.82
2023-04-18T00:11:38.540Z,72.79
2023-04-18T00:12:38.548Z,68.86
2023-04-18T00:13:38.593Z,70.18
2023-04-18T00:14:38.537Z,70.27
2023-04-18T00:15:38.581Z,68.51
2023-04-18T00:16:38.583Z,70.72
2023-04-18T00:17:38.622Z,73.00
2023-04-18T00:18:38.534Z,72.87
2023-04-18T00:19:38.567Z,69.02
2023-04-18T00:20:38.619Z,68.44
2023-04-18T00:21:38.564Z,66.88
2023-04-18T00:22:38.572Z,68.43
2023-04-18T00:23:38.613Z,67.33
2023-04-18T00:24:38.611Z,70.70
2023-04-18T00:25:38.617Z,70.63
2023-04-18T00:26:38.622Z,68.21
2023-04-18T00:27:38.633Z,69.46
2023-04-18T00:28:38.621Z,71.84
2023-04-18T00:29:38.655Z,66.50
2023-04-18T00:30:38.691Z,66.41
2023-04-18T00:31:38.651Z,69.07
2023-04-18T00:32:38.806Z,68.82
2023-04-18T00:33:38.680Z,66.86
2023-04-18T00:34:38.700Z,67.18
2023-04-18T00:35:38.715Z,67.53
2023-04-18T00:36:38.709Z,66.27
2023-04-18T00:37:38.725Z,66.73
2023-04-18T00:38:38.747Z,64.52
2023-04-18T00:39:38.743Z,67.35
2023-04-18T00:40:38.851Z,66.92
2023-04-18T00:41:38.803Z,68.25
2023-04-18T00:42:38.817Z,65.78
2023-04-18T00:43:38.810Z,66.25
2023-04-18T00:44:38.789Z,66.24
2023-04-18T00:45:38.818Z,63.86
2023-04-18T00:46:38.894Z,67.62
2023-04-18T00:47:38.917Z,66.99
2023-04-18T00:48:38.842Z,65.25
2023-04-18T00:49:38.835Z,66.25
2023-04-18T00:50:38.842Z,65.98
2023-04-18T00:51:38.875Z,65.97
2023-04-18T00:52:38.873Z,65.14
2023-04-18T00:53:38.897Z,65.23
2023-04-18T00:54:38.950Z,65.11
2023-04-18T00:55:38.915Z,65.14
2023-04-18T00:56:38.915Z,65.52
2023-04-18T00:57:38.960Z,65.49
2023-04-18T00:58:38.945Z,62.88
2023-04-18T00:59:38.943Z,65.94
2023-04-18T01:00:39.003Z,65.85
2023-04-18T01:01:39.100Z,67.16
2023-04-18T01:02:39.088Z,67.62
2023-04-18T01:03:39.132Z,64.13
2023-04-18T01:04:38.977Z,64.25
2023-04-18T01:05:38.960Z,63.17
2023-04-18T01:06:38.983Z,65.76
2023-04-18T01:07:38.973Z,63.17
2023-04-18T01:08:38.991Z,61.56
2023-04-18T01:09:38.985Z,63.20
2023-04-18T01:10:38.975Z,62.02
2023-04-18T01:11:38.975Z,64.11
2023-04-18T01:12:38.999Z,63.05
2023-04-18T01:13:39.238Z,64.13
2023-04-18T01:14:39.026Z,63.41
2023-04-18T01:15:39.083Z,65.03
2023-04-18T01:16:39.018Z,63.74
2023-04-18T01:17:39.014Z,60.57
2023-04-18T01:18:39.001Z,62.62
2023-04-18T01:19:39.093Z,59.19
2023-04-18T01:20:39.065Z,63.91
2023-04-18T01:21:39.006Z,64.56
2023-04-18T01:22:39.036Z,63.45
2023-04-18T01:23:39.041Z,62.45
2023-04-18T01:24:39.013Z,60.72
2023-04-18T01:25:39.013Z,63.72
2023-04-18T01:26:39.060Z,61.18
2023-04-18T01:27:39.017Z,60.84
2023-04-18T01:28:39.024Z,62.92
2023-04-18T01:29:39.169Z,59.81
2023-04-18T01:30:39.017Z,62.22
2023-04-18T01:31:39.211Z,61.32
2023-04-18T01:32:39.137Z,62.29
2023-04-18T01:33:39.024Z,62.65
2023-04-18T01:34:39.049Z,59.32
2023-04-18T01:35:39.054Z,61.48
2023-04-18T01:36:39.135Z,59.86
2023-04-18T01:37:39.042Z,60.68
2023-04-18T01:38:39.010Z,60.51
2023-04-18T01:39:38.995Z,59.38
2023-04-18T01:40:39.053Z,60.03
2023-04-18T01:41:39.023Z,59.29
2023-04-18T01:42:38.988Z,60.01
2023-04-18T01:43:39.009Z,61.23
2023-04-18T01:44:39.026Z,61.33
2023-04-18T01:45:39.057Z,61.02
2023-04-18T01:46:39.047Z,59.97
2023-04-18T01:47:39.030Z,60.77
2023-04-18T01:48:38.982Z,58.17
2023-04-18T01:49:38.964Z,58.92
2023-04-18T01:50:38.984Z,58.89
2023-04-18T01:51:38.999Z,61.66
2023-04-18T01:52:38.973Z,59.87
2023-04-18T01:53:38.990Z,58.87
2023-04-18T01:54:39.049Z,60.88
2023-04-18T01:55:39.061Z,58.66
2023-04-18T01:56:39.049Z,59.48
2023-04-18T01:57:39.088Z,55.74
2023-04-18T01:58:39.130Z,59.55
2023-04-18T01:59:39.166Z,57.81
2023-04-18T02:00:39.313Z,58.91
2023-04-18T02:01:39.294Z,60.52
2023-04-18T02:02:39.439Z,58.61
2023-04-18T02:03:39.569Z,60.07
2023-04-18T02:04:39.420Z,58.29
2023-04-18T02:05:39.528Z,58.42
2023-04-18T02:06:39.570Z,58.24
2023-04-18T02:07:39.445Z,57.79
2023-04-18T02:08:39.452Z,58.52
2023-04-18T02:09:39.444Z,59.30
2023-04-18T02:10:39.454Z,59.62
2023-04-18T02:11:39.449Z,58.01
2023-04-18T02:12:39.439Z,59.68
2023-04-18T02:13:39.418Z,60.27
2023-04-18T02:14:39.434Z,55.99
2023-04-18T02:15:39.428Z,57.17
2023-04-18T02:16:39.435Z,58.96
2023-04-18T02:17:39.442Z,58.35
2023-04-18T02:18:39.418Z,61.15
2023-04-18T02:19:39.412Z,55.88
2023-04-18T02:20:39.431Z,59.03
2023-04-18T02:21:39.403Z,58.65
2023-04-18T02:22:39.435Z,57.08
2023-04-18T02:23:39.410Z,58.22
2023-04-18T02:24:39.396Z,58.01
2023-04-18T02:25:39.377Z,58.28
2023-04-18T02:26:39.375Z,59.25
2023-04-18T02:27:39.366Z,56.52
2023-04-18T02:28:39.377Z,56.95
2023-04-18T02:29:39.386Z,55.54
2023-04-18T02:30:39.362Z,56.69
2023-04-18T02:31:39.444Z,56.84
2023-04-18T02:32:39.397Z,56.23
2023-04-18T02:33:39.475Z,58.24
2023-04-18T02:34:39.430Z,56.06
2023-04-18T02:35:39.366Z,57.07
2023-04-18T02:36:39.358Z,57.18
2023-04-18T02:37:39.347Z,56.22
2023-04-18T02:38:39.360Z,56.90
2023-04-18T02:39:39.351Z,58.02
2023-04-18T02:40:39.352Z,53.41
2023-04-18T02:41:39.364Z,55.62
2023-04-18T02:42:39.340Z,58.64
2023-04-18T02:43:39.400Z,56.68
2023-04-18T02:44:39.326Z,59.13
2023-04-18T02:45:39.373Z,57.69
2023-04-18T02:46:39.341Z,56.21
2023-04-18T02:47:51.143Z,56.68
2023-04-18T02:48:40.365Z,56.89
2023-04-18T02:49:39.365Z,57.36
2023-04-18T02:50:39.345Z,58.06
2023-04-18T02:51:39.304Z,56.44
2023-04-18T02:52:39.314Z,58.11
2023-04-18T02:53:39.295Z,56.43
2023-04-18T02:54:39.265Z,55.54
2023-04-18T02:55:39.271Z,57.25
2023-04-18T02:56:39.274Z,53.89
2023-04-18T02:57:39.251Z,55.65
2023-04-18T02:58:39.273Z,56.96
2023-04-18T02:59:39.257Z,55.10
2023-04-18T03:00:39.341Z,54.31
2023-04-18T03:01:39.289Z,55.56
2023-04-18T03:02:39.321Z,55.10
2023-04-18T03:03:39.260Z,55.48
2023-04-18T03:04:39.250Z,55.44
2023-04-18T03:05:39.201Z,55.74
2023-04-18T03:06:39.231Z,55.66
2023-04-18T03:07:39.181Z,57.81
2023-04-18T03:08:39.209Z,54.40
2023-04-18T03:09:39.177Z,54.08
2023-04-18T03:10:39.210Z,57.27
2023-04-18T03:11:39.162Z,53.80
2023-04-18T03:12:39.138Z,53.73
2023-04-18T03:13:39.163Z,55.97
2023-04-18T03:14:39.261Z,55.32
2023-04-18T03:15:39.267Z,52.65
2023-04-18T03:16:39.359Z,53.72
2023-04-18T03:17:39.361Z,54.79
2023-04-18T03:18:39.345Z,54.08
2023-04-18T03:19:39.419Z,53.08
2023-04-18T03:20:39.432Z,55.95
2023-04-18T03:21:39.505Z,53.39
2023-04-18T03:22:39.523Z,53.35
2023-04-18T03:23:39.597Z,52.95
2023-04-18T03:24:39.672Z,51.76
2023-04-18T03:25:39.677Z,51.96
2023-04-18T03:26:39.710Z,52.48
2023-04-18T03:27:39.790Z,55.27
2023-04-18T03:28:39.787Z,56.86
2023-04-18T03:29:39.760Z,53.21
2023-04-18T03:30:39.821Z,52.68
2023-04-18T03:31:39.863Z,52.56
2023-04-18T03:32:39.864Z,53.55
2023-04-18T03:33:39.834Z,53.57
2023-04-18T03:34:39.850Z,54.43
2023-04-18T03:35:39.882Z,51.50
2023-04-18T03:36:39.879Z,55.76
2023-04-18T03:37:39.896Z,52.80
2023-04-18T03:38:39.876Z,49.96
2023-04-18T03:39:39.934Z,56.96
2023-04-18T03:40:39.956Z,52.36
2023-04-18T03:41:39.975Z,50.37
2023-04-18T03:42:39.989Z,51.08
2023-04-18T03:43:40.010Z,53.63
2023-04-18T03:44:40.009Z,52.30
2023-04-18T03:45:40.046Z,52.42
2023-04-18T03:46:40.114Z,50.90
2023-04-18T03:47:40.121Z,52.99
2023-04-18T03:48:40.066Z,48.75
2023-04-18T03:49:40.116Z,50.76
2023-04-18T03:50:40.100Z,48.24
2023-04-18T03:51:40.123Z,51.28
2023-04-18T03:52:40.210Z,52.24
2023-04-18T03:53:40.139Z,49.23
2023-04-18T03:54:40.240Z,54.18
2023-04-18T03:55:40.239Z,52.17
2023-04-18T03:56:40.271Z,51.58
2023-04-18T03:57:41.376Z,53.50
2023-04-18T03:58:40.300Z,53.21
2023-04-18T03:59:40.346Z,49.65
2023-04-18T04:00:40.383Z,53.76
2023-04-18T04:01:40.428Z,50.54
2023-04-18T04:02:40.543Z,52.32
2023-04-18T04:03:40.555Z,52.29
2023-04-18T04:04:40.530Z,53.71
2023-04-18T04:05:40.432Z,49.85
2023-04-18T04:06:40.445Z,52.47
2023-04-18T04:07:40.566Z,50.39
2023-04-18T04:08:40.478Z,49.92
2023-04-18T04:09:40.575Z,51.42
2023-04-18T04:10:40.537Z,51.14
2023-04-18T04:11:40.584Z,46.81
2023-04-18T04:12:40.603Z,49.59
2023-04-18T04:13:40.643Z,50.64
2023-04-18T04:14:40.674Z,52.88
2023-04-18T04:15:40.707Z,50.89
2023-04-18T04:16:40.769Z,49.67
2023-04-18T04:17:40.775Z,49.25
2023-04-18T04:18:40.817Z,49.18
2023-04-18T04:19:40.834Z,50.02
2023-04-18T04:20:40.891Z,49.48
2023-04-18T04:21:40.964Z,51.92
2023-04-18T04:22:41.057Z,49.42
2023-04-18T04:23:41.116Z,48.31
2023-04-18T04:24:41.142Z,49.62
2023-04-18T04:25:41.233Z,50.11
2023-04-18T04:26:41.280Z,46.61
2023-04-18T04:27:41.337Z,50.54
2023-04-18T04:28:41.407Z,47.82
2023-04-18T04:29:41.484Z,47.71
2023-04-18T04:30:41.555Z,51.14
2023-04-18T04:31:41.626Z,46.74
2023-04-18T04:32:41.641Z,47.20
2023-04-18T04:33:41.674Z,49.17
2023-04-18T04:34:41.705Z,49.63
2023-04-18T04:35:41.684Z,48.12
2023-04-18T04:36:41.718Z,50.11
2023-04-18T04:37:41.748Z,49.15
2023-04-18T04:38:41.732Z,47.04
2023-04-18T04:39:41.767Z,48.11
2023-04-18T04:40:41.830Z,48.97
2023-04-18T04:41:41.806Z,49.19
2023-04-18T04:42:41.886Z,48.70
2023-04-18T04:43:41.886Z,48.89
2023-04-18T04:44:41.933Z,50.52
2023-04-18T04:45:42.047Z,48.25
2023-04-18T04:46:41.970Z,48.59
2023-04-18T04:47:42.092Z,47.88
2023-04-18T04:48:42.063Z,47.61
2023-04-18T04:49:42.127Z,48.22
2023-04-18T04:50:42.156Z,48.90
2023-04-18T04:51:42.176Z,46.69
2023-04-18T04:52:42.211Z,47.40
2023-04-18T04:53:42.222Z,47.42
2023-04-18T04:54:42.307Z,45.21
2023-04-18T04:55:42.347Z,44.62
2023-04-18T04:56:42.346Z,43.90
2023-04-18T04:57:42.416Z,45.93
2023-04-18T04:58:42.426Z,47.91
2023-04-18T04:59:42.478Z,42.80
2023-04-18T05:00:42.520Z,46.13
2023-04-18T05:01:42.557Z,45.62
2023-04-18T05:02:42.752Z,45.14
2023-04-18T05:03:42.935Z,43.46
2023-04-18T05:04:42.742Z,42.38
2023-04-18T05:05:42.735Z,45.79
2023-04-18T05:06:42.739Z,45.14
2023-04-18T05:07:42.833Z,44.89
2023-04-18T05:08:42.873Z,44.59
2023-04-18T05:09:42.939Z,44.96
2023-04-18T05:10:43.046Z,44.91
2023-04-18T05:11:43.062Z,46.42
2023-04-18T05:12:43.103Z,43.16
2023-04-18T05:13:43.207Z,46.12
2023-04-18T05:14:43.222Z,43.99
2023-04-18T05:15:43.318Z,44.41
2023-04-18T05:16:43.446Z,42.03
2023-04-18T05:17:43.563Z,43.19
2023-04-18T05:18:43.634Z,45.47
2023-04-18T05:19:43.534Z,40.61
2023-04-18T05:20:43.673Z,41.61
2023-04-18T05:21:43.677Z,41.11
2023-04-18T05:22:44.009Z,42.70
2023-04-18T05:23:44.001Z,43.83
2023-04-18T05:24:43.815Z,42.20
2023-04-18T05:25:43.854Z,40.16
2023-04-18T05:26:43.949Z,41.84
2023-04-18T05:27:43.971Z,43.39
2023-04-18T05:28:44.690Z,40.57
2023-04-18T05:29:44.149Z,38.93
2023-04-18T05:30:44.216Z,41.70
2023-04-18T05:31:44.231Z,40.46
2023-04-18T05:32:44.284Z,41.71
2023-04-18T05:33:44.315Z,36.48
2023-04-18T05:34:44.771Z,34.04
2023-04-18T05:35:44.616Z,32.22
2023-04-18T05:36:45.337Z,37.61
2023-04-18T05:37:44.488Z,38.62
2023-04-18T05:38:44.433Z,41.13
2023-04-18T05:39:45.021Z,46.68
2023-04-18T05:40:44.663Z,44.42
2023-04-18T05:41:44.687Z,46.73
2023-04-18T05:42:45.516Z,52.48
2023-04-18T05:43:51.154Z,51.78
2023-04-18T05:44:46.074Z,52.17
2023-04-18T05:45:44.782Z,53.79
2023-04-18T05:46:44.729Z,56.91
2023-04-18T05:47:44.831Z,65.39
2023-04-18T05:48:44.721Z,74.57
2023-04-18T05:49:45.493Z,74.06
2023-04-18T05:50:45.217Z,71.02
2023-04-18T05:51:45.505Z,71.09
2023-04-18T05:52:44.698Z,73.12
2023-04-18T05:53:45.002Z,69.55
2023-04-18T05:54:44.699Z,73.75
2023-04-18T05:55:44.705Z,74.78
2023-04-18T05:56:44.762Z,69.23
2023-04-18T05:57:44.811Z,73.11
2023-04-18T05:58:44.777Z,72.94
2023-04-18T05:59:44.784Z,73.12
2023-04-18T06:00:44.801Z,75.72
2023-04-18T06:01:44.835Z,69.72
2023-04-18T06:02:44.974Z,73.27
2023-04-18T06:03:45.219Z,70.27
2023-04-18T06:04:45.372Z,68.22
2023-04-18T06:05:45.116Z,68.44
2023-04-18T06:06:45.235Z,67.73
2023-04-18T06:07:45.060Z,66.98
2023-04-18T06:08:45.521Z,67.03
2023-04-18T06:09:45.118Z,61.17
2023-04-18T06:10:45.133Z,63.27
2023-04-18T06:11:45.198Z,152.82
2023-04-18T06:12:45.223Z,110.32
2023-04-18T06:13:45.262Z,85.79
2023-04-18T06:14:45.316Z,77.91
2023-04-18T06:15:45.375Z,70.92
2023-04-18T06:16:45.356Z,69.42
2023-04-18T06:17:45.428Z,57.56
2023-04-18T06:18:45.409Z,60.35
2023-04-18T06:19:45.444Z,56.89
2023-04-18T06:20:45.443Z,54.25
2023-04-18T06:21:45.465Z,57.50
2023-04-18T06:22:45.506Z,58.43
2023-04-18T06:23:45.555Z,56.85
2023-04-18T06:24:45.640Z,54.58
2023-04-18T06:25:45.615Z,56.40
2023-04-18T06:26:45.663Z,102.75
2023-04-18T06:27:45.679Z,98.90
2023-04-18T06:28:45.706Z,72.25
2023-04-18T06:29:45.701Z,65.01
2023-04-18T06:30:45.732Z,65.62
2023-04-18T06:31:45.836Z,64.18
2023-04-18T06:32:45.888Z,57.96
2023-04-18T06:33:45.905Z,54.11
2023-04-18T06:34:45.988Z,52.46
2023-04-18T06:35:45.933Z,49.91
2023-04-18T06:36:46.013Z,49.48
2023-04-18T06:37:46.022Z,57.91
2023-04-18T06:38:46.554Z,63.47
2023-04-18T06:39:46.097Z,52.97
2023-04-18T06:40:46.541Z,48.25
2023-04-18T06:41:47.136Z,45.64
2023-04-18T06:42:46.221Z,50.79
2023-04-18T06:44:01.627Z,50.82
2023-04-18T06:44:47.275Z,51.09
2023-04-18T06:45:46.571Z,51.38
2023-04-18T06:46:46.246Z,56.37
2023-04-18T06:47:46.294Z,273.02
2023-04-18T06:48:46.258Z,343.70
2023-04-18T06:49:46.245Z,157.29
2023-04-18T06:50:46.514Z,109.12
2023-04-18T06:51:46.193Z,94.71
2023-04-18T06:52:46.207Z,81.59
2023-04-18T06:53:46.167Z,71.69
2023-04-18T06:54:46.193Z,66.84
2023-04-18T06:55:46.167Z,62.04
2023-04-18T06:56:46.198Z,57.04
2023-04-18T06:57:46.250Z,51.35
2023-04-18T06:58:46.290Z,50.97
2023-04-18T06:59:46.350Z,48.71
2023-04-18T07:00:46.552Z,51.35
2023-04-18T07:01:46.467Z,50.43
2023-04-18T07:02:46.788Z,48.66
2023-04-18T07:03:46.611Z,48.98
2023-04-18T07:04:46.794Z,47.50
2023-04-18T07:05:47.032Z,48.39
2023-04-18T07:06:46.619Z,49.84
2023-04-18T07:07:46.710Z,47.43
2023-04-18T07:08:46.661Z,42.40
2023-04-18T07:09:46.715Z,43.26
2023-04-18T07:10:46.763Z,43.43
2023-04-18T07:11:46.848Z,43.83
2023-04-18T07:12:46.841Z,45.93
2023-04-18T07:13:46.871Z,48.39
2023-04-18T07:14:46.933Z,48.27
2023-04-18T07:15:46.971Z,43.29
2023-04-18T07:16:47.037Z,131.85
2023-04-18T07:17:47.228Z,87.79
2023-04-18T07:18:47.057Z,66.07
2023-04-18T07:19:47.106Z,55.61
2023-04-18T07:20:47.195Z,52.88
2023-04-18T07:21:47.185Z,49.64
2023-04-18T07:22:47.211Z,47.09
2023-04-18T07:23:47.258Z,45.68
2023-04-18T07:24:47.247Z,44.69
2023-04-18T07:25:47.302Z,46.36
2023-04-18T07:26:47.348Z,43.14
2023-04-18T07:27:47.381Z,48.10
2023-04-18T07:28:47.380Z,47.93
2023-04-18T07:29:47.460Z,49.20
2023-04-18T07:30:47.468Z,49.95
2023-04-18T07:31:47.485Z,50.40
2023-04-18T07:32:48.554Z,47.94
2023-04-18T07:33:48.114Z,49.92
2023-04-18T07:34:47.515Z,49.94
2023-04-18T07:35:47.550Z,58.39
2023-04-18T07:36:47.652Z,57.68
2023-04-18T07:37:47.645Z,62.02
2023-04-18T07:38:48.061Z,68.97
2023-04-18T07:39:47.680Z,74.34
2023-04-18T07:40:47.631Z,71.13
2023-04-18T07:41:47.658Z,78.25
2023-04-18T07:42:47.670Z,79.93
2023-04-18T07:43:47.710Z,85.48
2023-04-18T07:44:47.715Z,85.99
2023-04-18T07:45:47.813Z,90.82
2023-04-18T07:46:47.817Z,93.75
2023-04-18T07:47:47.816Z,104.77
2023-04-18T07:48:47.739Z,102.58
2023-04-18T07:49:47.752Z,108.30
2023-04-18T07:50:48.048Z,115.66
2023-04-18T07:51:47.785Z,121.55
2023-04-18T07:52:47.925Z,124.84
2023-04-18T07:53:47.825Z,128.18
2023-04-18T07:54:47.810Z,134.33
2023-04-18T07:55:48.614Z,144.24
2023-04-18T07:56:47.832Z,136.02
2023-04-18T07:57:47.899Z,142.95
2023-04-18T07:58:47.850Z,140.66
2023-04-18T07:59:48.040Z,140.42
2023-04-18T08:00:48.164Z,141.48
2023-04-18T08:01:47.884Z,145.02
2023-04-18T08:02:47.932Z,145.89
2023-04-18T08:03:48.036Z,146.50
2023-04-18T08:04:48.008Z,147.75
2023-04-18T08:05:47.910Z,153.96
2023-04-18T08:06:47.907Z,158.20
2023-04-18T08:07:47.942Z,159.84
2023-04-18T08:08:47.915Z,160.18
2023-04-18T08:09:47.983Z,161.91
2023-04-18T08:10:47.984Z,167.39
2023-04-18T08:11:47.913Z,167.79
2023-04-18T08:12:47.890Z,171.84
2023-04-18T08:13:47.906Z,178.14
2023-04-18T08:14:47.958Z,180.23
2023-04-18T08:15:48.028Z,183.41
2023-04-18T08:16:48.163Z,184.27
2023-04-18T08:17:48.088Z,189.47
2023-04-18T08:18:48.170Z,191.87
2023-04-18T08:19:48.185Z,193.77
2023-04-18T08:20:48.098Z,198.99
2023-04-18T08:21:48.142Z,201.52
2023-04-18T08:23:05.186Z,230.73
2023-04-18T08:23:49.174Z,224.13
2023-04-18T08:25:03.232Z,122.54
2023-04-18T08:25:49.567Z,82.27
2023-04-18T08:26:48.170Z,59.97
2023-04-18T08:27:48.113Z,31.07
2023-04-18T08:28:48.117Z,12.19
2023-04-18T08:29:48.160Z,10.56
2023-04-18T08:30:48.622Z,32.28
2023-04-18T08:31:49.139Z,41.04
2023-04-18T08:32:48.145Z,46.79
2023-04-18T08:33:48.081Z,48.44
2023-04-18T08:34:48.556Z,64.17
2023-04-18T08:35:48.111Z,20.05
2023-04-18T08:36:48.080Z,31.07
2023-04-18T08:37:48.133Z,74.83
2023-04-18T08:38:48.117Z,73.58
2023-04-18T08:39:48.129Z,74.31
2023-04-18T08:40:48.728Z,74.00
2023-04-18T08:41:48.552Z,72.33
2023-04-18T08:42:48.232Z,70.98
2023-04-18T08:43:48.279Z,70.43
2023-04-18T08:44:48.288Z,59.25
2023-04-18T08:45:48.411Z,65.64
2023-04-18T08:46:48.571Z,63.57
2023-04-18T08:47:48.501Z,67.90
2023-04-18T08:48:48.630Z,65.72
2023-04-18T08:49:48.516Z,69.23
2023-04-18T08:50:48.529Z,70.02
2023-04-18T08:51:48.569Z,68.77
2023-04-18T08:52:48.567Z,71.20
2023-04-18T08:53:48.608Z,70.59
2023-04-18T08:54:49.131Z,70.16
2023-04-18T08:55:48.567Z,71.81
2023-04-18T08:56:49.065Z,72.58
2023-04-18T08:57:48.565Z,75.97
2023-04-18T08:58:48.574Z,77.31
2023-04-18T08:59:50.847Z,79.75
2023-04-18T09:00:49.080Z,82.23
2023-04-18T09:01:48.717Z,84.43
2023-04-18T09:02:48.794Z,83.75
2023-04-18T09:03:48.710Z,88.71
2023-04-18T09:04:48.699Z,88.90
2023-04-18T09:05:48.710Z,89.47
2023-04-18T09:06:48.699Z,90.96
2023-04-18T09:07:48.898Z,91.49
2023-04-18T09:08:48.763Z,94.44
2023-04-18T09:09:48.738Z,95.16
2023-04-18T09:10:48.737Z,95.87
2023-04-18T09:11:48.747Z,96.04
2023-04-18T09:12:48.729Z,98.91
2023-04-18T09:13:48.820Z,99.50
2023-04-18T09:14:48.723Z,100.39
2023-04-18T09:15:48.798Z,102.52
2023-04-18T09:16:48.862Z,104.16
2023-04-18T09:17:48.892Z,103.51
2023-04-18T09:18:48.939Z,104.01
2023-04-18T09:19:48.988Z,105.76
2023-04-18T09:20:49.645Z,104.52
2023-04-18T09:21:49.156Z,104.22
2023-04-18T09:22:48.993Z,106.09
2023-04-18T09:23:48.949Z,104.78
2023-04-18T09:24:48.951Z,103.79
2023-04-18T09:25:48.960Z,105.00
2023-04-18T09:26:48.918Z,103.18
2023-04-18T09:27:48.931Z,103.71
2023-04-18T09:28:48.956Z,103.40
2023-04-18T09:29:48.937Z,102.70
2023-04-18T09:30:49.005Z,105.31
2023-04-18T09:31:48.969Z,101.79
2023-04-18T09:32:49.024Z,108.31
2023-04-18T09:33:48.994Z,107.59
2023-04-18T09:34:48.999Z,86.45
2023-04-18T09:35:49.212Z,19.03
2023-04-18T09:36:49.166Z,0.00
2023-04-18T09:37:49.067Z,0.00
2023-04-18T09:38:49.164Z,8.07
2023-04-18T09:39:49.208Z,29.86
2023-04-18T09:40:49.225Z,29.00
2023-04-18T09:41:49.259Z,35.27
2023-04-18T09:42:49.276Z,38.35
2023-04-18T09:43:49.269Z,41.49
2023-04-18T09:44:49.365Z,37.66
2023-04-18T09:45:49.680Z,47.81
2023-04-18T09:46:49.432Z,59.40
2023-04-18T09:47:49.511Z,59.31
2023-04-18T09:48:50.510Z,52.62
2023-04-18T09:49:49.537Z,61.68
2023-04-18T09:50:49.582Z,53.09
2023-04-18T09:51:50.083Z,16.48
2023-04-18T09:52:49.686Z,23.80
2023-04-18T09:53:49.730Z,40.49
2023-04-18T09:54:49.777Z,52.32
2023-04-18T09:55:49.920Z,51.93
2023-04-18T09:56:49.916Z,53.65
2023-04-18T09:57:49.962Z,59.20
2023-04-18T09:58:50.029Z,71.03
2023-04-18T09:59:50.048Z,73.78
2023-04-18T10:00:50.277Z,73.89
2023-04-18T10:01:50.228Z,78.02
2023-04-18T10:02:50.374Z,81.29
2023-04-18T10:03:50.303Z,85.69
2023-04-18T10:04:50.329Z,89.02
2023-04-18T10:05:50.358Z,89.74
2023-04-18T10:06:50.317Z,85.50
2023-04-18T10:07:50.401Z,90.07
2023-04-18T10:08:50.363Z,92.12
2023-04-18T10:09:51.109Z,91.60
2023-04-18T10:10:50.472Z,93.36
2023-04-18T10:11:52.110Z,99.10
2023-04-18T10:12:50.619Z,101.68
2023-04-18T10:13:50.581Z,100.81
2023-04-18T10:14:50.644Z,103.78
2023-04-18T10:15:50.669Z,102.75
2023-04-18T10:16:50.732Z,101.06
2023-04-18T10:18:03.594Z,82.30
2023-04-18T10:18:51.682Z,82.65
2023-04-18T10:19:50.642Z,84.27
2023-04-18T10:20:50.648Z,87.54
2023-04-18T10:21:50.710Z,92.35
2023-04-18T10:22:50.614Z,99.90
2023-04-18T10:23:50.635Z,99.13
2023-04-18T10:24:50.609Z,102.98
2023-04-18T10:25:50.627Z,103.04
2023-04-18T10:26:50.628Z,95.71
2023-04-18T10:27:50.574Z,94.85
2023-04-18T10:28:50.609Z,93.71
2023-04-18T10:29:50.722Z,86.53
2023-04-18T10:30:50.621Z,86.60
2023-04-18T10:31:51.240Z,94.68
2023-04-18T10:32:50.905Z,103.21
2023-04-18T10:34:03.096Z,108.93
2023-04-18T10:34:51.801Z,109.11
2023-04-18T10:35:50.782Z,109.81
2023-04-18T10:36:50.837Z,111.93
2023-04-18T10:37:50.769Z,115.21
2023-04-18T10:38:50.778Z,111.89
2023-04-18T10:39:50.735Z,96.77
2023-04-18T10:40:50.761Z,102.11
2023-04-18T10:41:51.270Z,103.49
2023-04-18T10:42:50.741Z,108.43
2023-04-18T10:43:50.715Z,111.18
2023-04-18T10:44:50.702Z,113.50
2023-04-18T10:45:50.697Z,115.39
2023-04-18T10:46:50.773Z,115.16
2023-04-18T10:47:50.970Z,118.54
2023-04-18T10:48:50.849Z,117.49
2023-04-18T10:49:50.820Z,121.53
2023-04-18T10:50:50.842Z,120.74
2023-04-18T10:51:50.873Z,119.09
2023-04-18T10:52:50.887Z,120.27
2023-04-18T10:53:51.001Z,123.60
2023-04-18T10:54:50.880Z,127.17
2023-04-18T10:55:50.964Z,128.20
2023-04-18T10:56:50.932Z,129.23
2023-04-18T10:57:51.001Z,134.45
2023-04-18T10:58:51.010Z,139.51
2023-04-18T10:59:51.033Z,141.13
2023-04-18T11:00:51.066Z,143.73
2023-04-18T11:01:51.046Z,146.14
2023-04-18T11:02:51.197Z,145.99
2023-04-18T11:03:51.114Z,145.67
2023-04-18T11:04:51.086Z,147.15
2023-04-18T11:05:51.052Z,144.35
2023-04-18T11:06:51.274Z,146.87
2023-04-18T11:07:51.089Z,147.55
2023-04-18T11:08:51.653Z,148.83
2023-04-18T11:09:51.080Z,149.40
2023-04-18T11:10:51.108Z,152.16
2023-04-18T11:11:51.117Z,152.50
2023-04-18T11:12:51.168Z,151.51
2023-04-18T11:13:51.121Z,156.08
2023-04-18T11:14:51.126Z,153.30
2023-04-18T11:15:51.123Z,151.40
2023-04-18T11:16:51.266Z,152.30
2023-04-18T11:17:51.185Z,151.66
2023-04-18T11:18:51.154Z,152.22
2023-04-18T11:19:51.184Z,153.00
2023-04-18T11:20:51.190Z,154.19
2023-04-18T11:21:51.672Z,154.23
2023-04-18T11:22:51.191Z,153.78
2023-04-18T11:23:51.168Z,156.59
2023-04-18T11:24:51.173Z,154.83
2023-04-18T11:25:51.169Z,155.79
2023-04-18T11:26:51.652Z,156.96
2023-04-18T11:27:51.187Z,157.26
2023-04-18T11:28:51.188Z,157.19
2023-04-18T11:29:52.137Z,159.56
2023-04-18T11:30:51.234Z,159.41
2023-04-18T11:31:51.251Z,158.53
2023-04-18T11:32:51.258Z,158.83
2023-04-18T11:33:51.214Z,159.00
2023-04-18T11:34:51.234Z,159.41
2023-04-18T11:35:51.242Z,160.35
2023-04-18T11:36:51.294Z,160.89
2023-04-18T11:37:51.347Z,162.69
2023-04-18T11:38:51.304Z,162.47
2023-04-18T11:39:51.328Z,160.94
2023-04-18T11:40:51.457Z,163.15
2023-04-18T11:41:51.391Z,160.66
2023-04-18T11:42:51.403Z,161.66
2023-04-18T11:43:51.464Z,161.32
2023-04-18T11:44:51.440Z,161.25
2023-04-18T11:45:51.505Z,162.21
2023-04-18T11:46:51.515Z,162.14
2023-04-18T11:47:51.573Z,163.27
2023-04-18T11:48:51.625Z,161.08
2023-04-18T11:49:51.670Z,161.84
2023-04-18T11:50:51.609Z,161.82
2023-04-18T11:51:51.643Z,160.49
2023-04-18T11:52:51.669Z,161.16
2023-04-18T11:53:51.763Z,161.39
2023-04-18T11:54:51.735Z,161.54
2023-04-18T11:55:51.784Z,160.93
2023-04-18T11:56:51.842Z,162.10
2023-04-18T11:57:51.843Z,161.16
2023-04-18T11:58:51.854Z,161.93
2023-04-18T11:59:51.838Z,161.26
2023-04-18T12:00:51.884Z,161.09
2023-04-18T12:01:53.114Z,160.38
2023-04-18T12:02:52.054Z,161.97
2023-04-18T12:03:52.148Z,161.28
2023-04-18T12:04:52.187Z,159.27
2023-04-18T12:05:52.116Z,161.48
2023-04-18T12:06:52.095Z,161.16
2023-04-18T12:07:52.046Z,159.98
2023-04-18T12:08:53.978Z,159.29
2023-04-18T12:09:52.169Z,160.30
2023-04-18T12:10:52.139Z,160.38
2023-04-18T12:11:52.207Z,159.10
2023-04-18T12:12:52.251Z,160.63
2023-04-18T12:13:52.276Z,159.62
2023-04-18T12:14:52.252Z,157.90
2023-04-18T12:15:52.366Z,159.69
2023-04-18T12:16:52.311Z,158.53
2023-04-18T12:17:52.367Z,159.92
2023-04-18T12:18:52.376Z,157.98
2023-04-18T12:19:52.406Z,158.01
2023-04-18T12:20:52.511Z,157.20
2023-04-18T12:21:52.423Z,158.09
2023-04-18T12:22:52.483Z,159.01
2023-04-18T12:23:52.482Z,158.86
2023-04-18T12:24:52.559Z,159.12
2023-04-18T12:25:52.575Z,157.09
2023-04-18T12:26:52.671Z,158.69
2023-04-18T12:27:52.633Z,156.63
2023-04-18T12:28:52.650Z,159.13
2023-04-18T12:29:52.662Z,158.75
2023-04-18T12:30:52.699Z,158.39
2023-04-18T12:31:53.291Z,157.33
2023-04-18T12:32:52.809Z,158.46
2023-04-18T12:33:52.781Z,158.13
2023-04-18T12:34:52.822Z,157.56
2023-04-18T12:35:52.898Z,157.28
2023-04-18T12:36:53.181Z,157.66
2023-04-18T12:37:53.159Z,158.10
2023-04-18T12:38:52.975Z,155.36
2023-04-18T12:39:54.028Z,158.85
2023-04-18T12:40:53.112Z,156.24
2023-04-18T12:41:53.045Z,157.39
2023-04-18T12:42:53.166Z,155.91
2023-04-18T12:43:53.140Z,157.37
2023-04-18T12:44:53.141Z,157.99
2023-04-18T12:45:53.191Z,156.95
2023-04-18T12:46:53.296Z,155.51